sensor_id;sensor_type;location;lat;lon;timestamp;pressure;altitude;pressure_sealevel;temperature;humidity
26436;BME280;15351;52.408;16.826;2023-04-04T00:01:37;102163.52;;;3.44;53.70
26436;BME280;15351;52.408;16.826;2023-04-04T00:04:09;102163.59;;;3.40;53.71
26436;BME280;15351;52.408;16.826;2023-04-04T00:06:46;102161.63;;;3.35;53.73
26436;BME280;15351;52.408;16.826;2023-04-04T00:09:33;102164.38;;;3.33;53.89
26436;BME280;15351;52.408;16.826;2023-04-04T00:12:31;102159.90;;;3.28;54.00
26436;BME280;15351;52.408;16.826;2023-04-04T00:15:10;102159.55;;;3.25;54.21
26436;BME280;15351;52.408;16.826;2023-04-04T00:18:21;102155.88;;;3.21;54.32
26436;BME280;15351;52.408;16.826;2023-04-04T00:24:18;102152.41;;;3.16;54.45
26436;BME280;15351;52.408;16.826;2023-04-04T00:27:10;102146.30;;;3.12;54.38
26436;BME280;15351;52.408;16.826;2023-04-04T00:29:58;102149.16;;;3.11;54.56
26436;BME280;15351;52.408;16.826;2023-04-04T00:32:25;102149.30;;;3.09;54.71
26436;BME280;15351;52.408;16.826;2023-04-04T00:34:52;102148.92;;;3.09;54.67
26436;BME280;15351;52.408;16.826;2023-04-04T00:37:23;102145.13;;;3.07;54.75
26436;BME280;15351;52.408;16.826;2023-04-04T00:39:55;102146.45;;;3.06;54.80
26436;BME280;15351;52.408;16.826;2023-04-04T00:42:32;102140.98;;;3.06;54.75
26436;BME280;15351;52.408;16.826;2023-04-04T00:48:08;102140.10;;;3.02;54.95
26436;BME280;15351;52.408;16.826;2023-04-04T00:50:45;102137.71;;;3.01;55.11
26436;BME280;15351;52.408;16.826;2023-04-04T00:53:27;102140.76;;;3.00;55.24
26436;BME280;15351;52.408;16.826;2023-04-04T00:55:55;102137.06;;;3.00;55.28
26436;BME280;15351;52.408;16.826;2023-04-04T00:58:24;102139.19;;;3.00;55.45
26436;BME280;15351;52.408;16.826;2023-04-04T01:00:52;102142.38;;;3.00;55.48
26436;BME280;15351;52.408;16.826;2023-04-04T01:03:24;102138.16;;;2.99;55.59
26436;BME280;15351;52.408;16.826;2023-04-04T01:05:51;102139.08;;;2.99;55.74
26436;BME280;15351;52.408;16.826;2023-04-04T01:08:24;102138.77;;;2.98;55.83
26436;BME280;15351;52.408;16.826;2023-04-04T01:10:54;102141.25;;;2.98;55.91
26436;BME280;15351;52.408;16.826;2023-04-04T01:13:25;102143.89;;;2.98;56.02
26436;BME280;15351;52.408;16.826;2023-04-04T01:15:54;102136.92;;;2.99;55.98
26436;BME280;15351;52.408;16.826;2023-04-04T01:18:31;102139.23;;;2.99;56.11
26436;BME280;15351;52.408;16.826;2023-04-04T01:21:09;102138.43;;;3.01;56.02
26436;BME280;15351;52.408;16.826;2023-04-04T01:23:58;102133.60;;;3.01;56.04
26436;BME280;15351;52.408;16.826;2023-04-04T01:26:56;102131.65;;;2.98;56.09
26436;BME280;15351;52.408;16.826;2023-04-04T01:29:30;102121.86;;;2.98;56.40
26436;BME280;15351;52.408;16.826;2023-04-04T01:32:58;102122.98;;;3.03;56.31
26436;BME280;15351;52.408;16.826;2023-04-04T01:44:05;102107.99;;;3.13;55.82
26436;BME280;15351;52.408;16.826;2023-04-04T01:46:35;102105.42;;;3.15;55.88
26436;BME280;15351;52.408;16.826;2023-04-04T01:49:02;102104.34;;;3.15;55.90
26436;BME280;15351;52.408;16.826;2023-04-04T01:52:09;102102.55;;;3.15;56.06
26436;BME280;15351;52.408;16.826;2023-04-04T01:55:02;102098.53;;;3.17;55.96
26436;BME280;15351;52.408;16.826;2023-04-04T01:57:30;102096.52;;;3.18;55.86
26436;BME280;15351;52.408;16.826;2023-04-04T02:00:05;102097.08;;;3.18;55.62
26436;BME280;15351;52.408;16.826;2023-04-04T02:02:42;102096.16;;;3.18;55.64
26436;BME280;15351;52.408;16.826;2023-04-04T02:05:14;102095.30;;;3.17;55.47
26436;BME280;15351;52.408;16.826;2023-04-04T02:07:46;102092.29;;;3.18;55.55
26436;BME280;15351;52.408;16.826;2023-04-04T02:10:22;102086.27;;;3.17;55.60
26436;BME280;15351;52.408;16.826;2023-04-04T02:12:56;102090.41;;;3.16;55.57
26436;BME280;15351;52.408;16.826;2023-04-04T02:15:36;102086.04;;;3.15;55.69
26436;BME280;15351;52.408;16.826;2023-04-04T02:18:24;102080.95;;;3.14;55.67
26436;BME280;15351;52.408;16.826;2023-04-04T02:21:21;102078.74;;;3.15;55.41
26436;BME280;15351;52.408;16.826;2023-04-04T02:27:01;102083.92;;;3.15;55.57
26436;BME280;15351;52.408;16.826;2023-04-04T02:33:06;102080.30;;;3.13;55.36
26436;BME280;15351;52.408;16.826;2023-04-04T02:35:33;102075.52;;;3.13;55.38
26436;BME280;15351;52.408;16.826;2023-04-04T02:41:01;102067.08;;;3.20;55.31
26436;BME280;15351;52.408;16.826;2023-04-04T02:43:46;102063.99;;;3.21;54.99
26436;BME280;15351;52.408;16.826;2023-04-04T02:46:15;102066.30;;;3.24;54.89
26436;BME280;15351;52.408;16.826;2023-04-04T02:48:51;102066.98;;;3.24;54.70
26436;BME280;15351;52.408;16.826;2023-04-04T02:51:23;102061.63;;;3.25;54.65
26436;BME280;15351;52.408;16.826;2023-04-04T02:54:03;102060.86;;;3.26;54.61
26436;BME280;15351;52.408;16.826;2023-04-04T02:56:36;102058.13;;;3.27;54.61
26436;BME280;15351;52.408;16.826;2023-04-04T02:59:32;102055.66;;;3.29;54.36
26436;BME280;15351;52.408;16.826;2023-04-04T03:02:02;102055.23;;;3.30;54.46
26436;BME280;15351;52.408;16.826;2023-04-04T03:05:13;102058.92;;;3.31;54.36
26436;BME280;15351;52.408;16.826;2023-04-04T03:08:23;102058.49;;;3.32;54.58
26436;BME280;15351;52.408;16.826;2023-04-04T03:10:57;102058.73;;;3.34;54.43
26436;BME280;15351;52.408;16.826;2023-04-04T03:13:41;102053.63;;;3.36;54.03
26436;BME280;15351;52.408;16.826;2023-04-04T03:16:14;102054.48;;;3.36;53.90
26436;BME280;15351;52.408;16.826;2023-04-04T03:18:47;102049.41;;;3.38;53.81
26436;BME280;15351;52.408;16.826;2023-04-04T03:21:24;102047.34;;;3.40;53.75
26436;BME280;15351;52.408;16.826;2023-04-04T03:27:20;102045.73;;;3.43;53.62
26436;BME280;15351;52.408;16.826;2023-04-04T03:30:15;102040.70;;;3.44;53.64
26436;BME280;15351;52.408;16.826;2023-04-04T03:32:43;102042.30;;;3.44;53.58
26436;BME280;15351;52.408;16.826;2023-04-04T03:35:27;102040.52;;;3.44;53.48
26436;BME280;15351;52.408;16.826;2023-04-04T03:38:01;102036.95;;;3.44;53.30
26436;BME280;15351;52.408;16.826;2023-04-04T03:40:37;102032.38;;;3.43;53.20
26436;BME280;15351;52.408;16.826;2023-04-04T03:43:30;102033.39;;;3.44;53.09
26436;BME280;15351;52.408;16.826;2023-04-04T03:46:09;102031.46;;;3.43;53.01
26436;BME280;15351;52.408;16.826;2023-04-04T03:48:42;102025.08;;;3.40;53.02
26436;BME280;15351;52.408;16.826;2023-04-04T03:51:24;102033.55;;;3.41;53.11
26436;BME280;15351;52.408;16.826;2023-04-04T03:53:52;102028.48;;;3.37;53.31
26436;BME280;15351;52.408;16.826;2023-04-04T03:56:35;102032.33;;;3.35;53.90
26436;BME280;15351;52.408;16.826;2023-04-04T03:59:06;102030.21;;;3.32;54.38
26436;BME280;15351;52.408;16.826;2023-04-04T04:01:34;102027.98;;;3.31;55.02
26436;BME280;15351;52.408;16.826;2023-04-04T04:04:39;102023.70;;;3.31;55.54
26436;BME280;15351;52.408;16.826;2023-04-04T04:10:23;102023.45;;;3.27;56.50
26436;BME280;15351;52.408;16.826;2023-04-04T04:12:51;102022.27;;;3.26;56.70
26436;BME280;15351;52.408;16.826;2023-04-04T04:15:20;102019.97;;;3.23;56.85
26436;BME280;15351;52.408;16.826;2023-04-04T04:17:58;102019.73;;;3.27;57.25
26436;BME280;15351;52.408;16.826;2023-04-04T04:20:37;102024.53;;;3.27;57.41
26436;BME280;15351;52.408;16.826;2023-04-04T04:23:41;102019.34;;;3.27;57.78
26436;BME280;15351;52.408;16.826;2023-04-04T04:26:30;102018.18;;;3.32;58.35
26436;BME280;15351;52.408;16.826;2023-04-04T04:28:59;102023.14;;;3.35;58.30
26436;BME280;15351;52.408;16.826;2023-04-04T04:31:31;102023.84;;;3.38;58.46
26436;BME280;15351;52.408;16.826;2023-04-04T04:34:22;102021.34;;;3.40;58.50
26436;BME280;15351;52.408;16.826;2023-04-04T04:36:53;102024.10;;;3.42;58.76
26436;BME280;15351;52.408;16.826;2023-04-04T04:42:42;102023.85;;;3.46;59.04
26436;BME280;15351;52.408;16.826;2023-04-04T04:45:09;102031.36;;;3.48;59.10
26436;BME280;15351;52.408;16.826;2023-04-04T04:47:38;102029.17;;;3.46;59.11
26436;BME280;15351;52.408;16.826;2023-04-04T04:50:06;102030.20;;;3.47;59.34
26436;BME280;15351;52.408;16.826;2023-04-04T04:52:41;102031.08;;;3.50;59.46
26436;BME280;15351;52.408;16.826;2023-04-04T04:55:07;102034.29;;;3.52;59.56
26436;BME280;15351;52.408;16.826;2023-04-04T04:57:38;102034.86;;;3.54;59.65
26436;BME280;15351;52.408;16.826;2023-04-04T05:00:15;102039.43;;;3.55;59.71
26436;BME280;15351;52.408;16.826;2023-04-04T05:03:03;102034.84;;;3.55;59.84
26436;BME280;15351;52.408;16.826;2023-04-04T05:05:44;102035.13;;;3.56;59.84
26436;BME280;15351;52.408;16.826;2023-04-04T05:08:16;102035.80;;;3.57;59.92
26436;BME280;15351;52.408;16.826;2023-04-04T05:10:51;102038.80;;;3.57;60.05
26436;BME280;15351;52.408;16.826;2023-04-04T05:13:57;102036.23;;;3.58;60.40
26436;BME280;15351;52.408;16.826;2023-04-04T05:16:46;102033.19;;;3.61;60.46
26436;BME280;15351;52.408;16.826;2023-04-04T05:19:25;102036.80;;;3.64;60.42
26436;BME280;15351;52.408;16.826;2023-04-04T05:22:06;102041.42;;;3.66;60.60
26436;BME280;15351;52.408;16.826;2023-04-04T05:24:51;102038.79;;;3.66;60.49
26436;BME280;15351;52.408;16.826;2023-04-04T05:27:36;102042.96;;;3.67;60.62
26436;BME280;15351;52.408;16.826;2023-04-04T05:30:11;102040.67;;;3.67;60.68
26436;BME280;15351;52.408;16.826;2023-04-04T05:32:53;102044.23;;;3.70;61.09
26436;BME280;15351;52.408;16.826;2023-04-04T05:35:46;102045.52;;;3.74;61.00
26436;BME280;15351;52.408;16.826;2023-04-04T05:38:53;102034.21;;;3.76;60.98
26436;BME280;15351;52.408;16.826;2023-04-04T05:41:35;102039.98;;;3.83;60.89
26436;BME280;15351;52.408;16.826;2023-04-04T05:44:21;102039.38;;;3.84;60.85
26436;BME280;15351;52.408;16.826;2023-04-04T05:46:51;102035.89;;;3.83;60.78
26436;BME280;15351;52.408;16.826;2023-04-04T05:49:36;102036.70;;;3.82;60.90
26436;BME280;15351;52.408;16.826;2023-04-04T05:52:06;102038.85;;;3.87;61.06
26436;BME280;15351;52.408;16.826;2023-04-04T05:55:41;102041.70;;;3.89;60.94
26436;BME280;15351;52.408;16.826;2023-04-04T05:58:11;102040.02;;;3.94;60.58
26436;BME280;15351;52.408;16.826;2023-04-04T06:00:48;102045.17;;;3.96;60.35
26436;BME280;15351;52.408;16.826;2023-04-04T06:03:26;102048.23;;;3.98;60.27
26436;BME280;15351;52.408;16.826;2023-04-04T06:06:22;102042.53;;;3.96;59.95
26436;BME280;15351;52.408;16.826;2023-04-04T06:09:31;102043.89;;;3.97;60.26
26436;BME280;15351;52.408;16.826;2023-04-04T06:12:23;102044.07;;;3.97;60.44
26436;BME280;15351;52.408;16.826;2023-04-04T06:14:54;102046.01;;;4.02;60.60
26436;BME280;15351;52.408;16.826;2023-04-04T06:18:12;102047.01;;;4.09;60.52
26436;BME280;15351;52.408;16.826;2023-04-04T06:20:50;102047.13;;;4.13;60.33
26436;BME280;15351;52.408;16.826;2023-04-04T06:23:26;102043.27;;;4.15;60.49
26436;BME280;15351;52.408;16.826;2023-04-04T06:26:01;102032.26;;;4.14;60.50
26436;BME280;15351;52.408;16.826;2023-04-04T06:28:46;102034.96;;;4.21;60.44
26436;BME280;15351;52.408;16.826;2023-04-04T06:34:54;102027.77;;;4.23;60.29
26436;BME280;15351;52.408;16.826;2023-04-04T06:38:22;102025.45;;;4.28;60.39
26436;BME280;15351;52.408;16.826;2023-04-04T06:41:49;102022.90;;;4.37;60.18
26436;BME280;15351;52.408;16.826;2023-04-04T06:45:35;102025.96;;;4.50;59.83
26436;BME280;15351;52.408;16.826;2023-04-04T06:48:42;102024.91;;;4.58;59.41
26436;BME280;15351;52.408;16.826;2023-04-04T06:51:43;102018.50;;;4.65;59.18
26436;BME280;15351;52.408;16.826;2023-04-04T06:54:20;102022.02;;;4.74;58.71
26436;BME280;15351;52.408;16.826;2023-04-04T06:57:44;102018.10;;;4.79;58.55
26436;BME280;15351;52.408;16.826;2023-04-04T07:00:47;102021.45;;;4.85;58.12
26436;BME280;15351;52.408;16.826;2023-04-04T07:04:04;102021.26;;;4.93;58.21
26436;BME280;15351;52.408;16.826;2023-04-04T07:07:04;102019.55;;;5.00;57.82
26436;BME280;15351;52.408;16.826;2023-04-04T07:10:02;102021.52;;;5.04;57.52
26436;BME280;15351;52.408;16.826;2023-04-04T07:12:36;102019.90;;;5.09;57.54
26436;BME280;15351;52.408;16.826;2023-04-04T07:15:06;102019.80;;;5.13;57.36
26436;BME280;15351;52.408;16.826;2023-04-04T07:17:45;102020.34;;;5.19;57.43
26436;BME280;15351;52.408;16.826;2023-04-04T07:20:20;102009.53;;;5.25;57.26
26436;BME280;15351;52.408;16.826;2023-04-04T07:22:54;102012.15;;;5.36;57.14
26436;BME280;15351;52.408;16.826;2023-04-04T07:25:26;102010.29;;;5.42;57.04
26436;BME280;15351;52.408;16.826;2023-04-04T07:28:30;102005.58;;;5.55;56.89
26436;BME280;15351;52.408;16.826;2023-04-04T07:31:02;101999.41;;;5.59;56.58
26436;BME280;15351;52.408;16.826;2023-04-04T07:33:55;101999.85;;;5.63;56.32
26436;BME280;15351;52.408;16.826;2023-04-04T07:36:39;102000.60;;;5.68;56.09
26436;BME280;15351;52.408;16.826;2023-04-04T07:39:11;101999.13;;;5.69;55.57
26436;BME280;15351;52.408;16.826;2023-04-04T07:41:56;101999.78;;;5.67;55.10
26436;BME280;15351;52.408;16.826;2023-04-04T07:44:51;102003.88;;;5.64;54.22
26436;BME280;15351;52.408;16.826;2023-04-04T07:47:30;102000.27;;;5.59;53.72
26436;BME280;15351;52.408;16.826;2023-04-04T07:49:57;101994.36;;;5.53;53.59
26436;BME280;15351;52.408;16.826;2023-04-04T07:52:24;101994.66;;;5.49;53.34
26436;BME280;15351;52.408;16.826;2023-04-04T07:54:51;101994.70;;;5.43;53.56
26436;BME280;15351;52.408;16.826;2023-04-04T07:57:19;102001.86;;;5.40;53.81
26436;BME280;15351;52.408;16.826;2023-04-04T07:59:57;102005.89;;;5.39;53.34
26436;BME280;15351;52.408;16.826;2023-04-04T08:02:51;102005.67;;;5.32;52.87
26436;BME280;15351;52.408;16.826;2023-04-04T08:05:37;102006.64;;;5.30;52.59
26436;BME280;15351;52.408;16.826;2023-04-04T08:08:08;102000.34;;;5.26;52.48
26436;BME280;15351;52.408;16.826;2023-04-04T08:10:45;102000.31;;;5.24;52.43
26436;BME280;15351;52.408;16.826;2023-04-04T08:13:14;101996.27;;;5.23;52.18
26436;BME280;15351;52.408;16.826;2023-04-04T08:15:42;102000.31;;;5.24;52.19
26436;BME280;15351;52.408;16.826;2023-04-04T08:18:13;101998.50;;;5.25;52.17
26436;BME280;15351;52.408;16.826;2023-04-04T08:20:53;101997.11;;;5.24;51.85
26436;BME280;15351;52.408;16.826;2023-04-04T08:23:42;101999.36;;;5.25;51.63
26436;BME280;15351;52.408;16.826;2023-04-04T08:26:41;101999.92;;;5.25;51.38
26436;BME280;15351;52.408;16.826;2023-04-04T08:29:35;101998.88;;;5.22;51.18
26436;BME280;15351;52.408;16.826;2023-04-04T08:32:21;101996.02;;;5.42;51.60
26436;BME280;15351;52.408;16.826;2023-04-04T08:34:50;101992.06;;;5.84;51.72
26436;BME280;15351;52.408;16.826;2023-04-04T08:37:17;101985.00;;;6.26;51.84
26436;BME280;15351;52.408;16.826;2023-04-04T08:39:50;101983.44;;;6.63;51.64
26436;BME280;15351;52.408;16.826;2023-04-04T08:42:32;101977.39;;;6.77;50.86
26436;BME280;15351;52.408;16.826;2023-04-04T08:45:17;101977.52;;;6.73;50.38
26436;BME280;15351;52.408;16.826;2023-04-04T08:47:52;101976.55;;;6.62;49.20
26436;BME280;15351;52.408;16.826;2023-04-04T08:50:36;101973.53;;;6.43;47.87
26436;BME280;15351;52.408;16.826;2023-04-04T08:53:16;101976.15;;;6.30;47.73
26436;BME280;15351;52.408;16.826;2023-04-04T08:55:47;101973.04;;;6.22;47.81
26436;BME280;15351;52.408;16.826;2023-04-04T08:58:56;101973.16;;;6.16;47.91
26436;BME280;15351;52.408;16.826;2023-04-04T09:01:44;101970.19;;;6.15;48.11
26436;BME280;15351;52.408;16.826;2023-04-04T09:04:14;101970.52;;;6.33;48.84
26436;BME280;15351;52.408;16.826;2023-04-04T09:07:02;101963.95;;;6.45;48.29
26436;BME280;15351;52.408;16.826;2023-04-04T09:09:56;101963.63;;;6.42;47.47
26436;BME280;15351;52.408;16.826;2023-04-04T09:12:47;101965.16;;;6.36;47.25
26436;BME280;15351;52.408;16.826;2023-04-04T09:15:17;101961.19;;;6.35;47.48
26436;BME280;15351;52.408;16.826;2023-04-04T09:17:47;101959.36;;;6.35;48.23
26436;BME280;15351;52.408;16.826;2023-04-04T09:25:58;101954.46;;;6.36;47.58
26436;BME280;15351;52.408;16.826;2023-04-04T09:28:35;101958.67;;;6.39;47.76
26436;BME280;15351;52.408;16.826;2023-04-04T09:31:03;101956.95;;;6.40;47.81
26436;BME280;15351;52.408;16.826;2023-04-04T09:33:37;101957.98;;;6.43;47.68
26436;BME280;15351;52.408;16.826;2023-04-04T09:36:06;101959.13;;;6.47;47.76
26436;BME280;15351;52.408;16.826;2023-04-04T09:38:41;101962.23;;;6.49;47.22
26436;BME280;15351;52.408;16.826;2023-04-04T09:41:27;101955.15;;;6.45;46.76
26436;BME280;15351;52.408;16.826;2023-04-04T09:44:01;101955.52;;;6.45;46.88
26436;BME280;15351;52.408;16.826;2023-04-04T09:46:28;101961.19;;;6.44;46.49
26436;BME280;15351;52.408;16.826;2023-04-04T09:49:00;101958.58;;;6.43;46.89
26436;BME280;15351;52.408;16.826;2023-04-04T09:51:37;101961.20;;;6.46;46.92
26436;BME280;15351;52.408;16.826;2023-04-04T09:54:09;101965.10;;;6.48;47.20
26436;BME280;15351;52.408;16.826;2023-04-04T09:56:48;101964.75;;;6.51;46.97
26436;BME280;15351;52.408;16.826;2023-04-04T09:59:18;101964.63;;;6.50;46.74
26436;BME280;15351;52.408;16.826;2023-04-04T10:01:56;101964.38;;;6.49;46.66
26436;BME280;15351;52.408;16.826;2023-04-04T10:04:34;101966.36;;;6.46;46.34
26436;BME280;15351;52.408;16.826;2023-04-04T10:07:03;101969.20;;;6.44;46.40
26436;BME280;15351;52.408;16.826;2023-04-04T10:10:06;101973.00;;;6.41;46.49
26436;BME280;15351;52.408;16.826;2023-04-04T10:12:54;101973.21;;;6.38;46.55
26436;BME280;15351;52.408;16.826;2023-04-04T10:15:34;101974.37;;;6.35;46.76
26436;BME280;15351;52.408;16.826;2023-04-04T10:18:10;101974.68;;;6.35;47.10
26436;BME280;15351;52.408;16.826;2023-04-04T10:20:45;101970.53;;;6.38;47.34
26436;BME280;15351;52.408;16.826;2023-04-04T10:23:15;101969.81;;;6.40;47.43
26436;BME280;15351;52.408;16.826;2023-04-04T10:25:52;101967.42;;;6.41;47.27
26436;BME280;15351;52.408;16.826;2023-04-04T10:28:41;101967.41;;;6.41;47.04
26436;BME280;15351;52.408;16.826;2023-04-04T10:31:42;101966.20;;;6.41;46.90
26436;BME280;15351;52.408;16.826;2023-04-04T10:35:04;101961.38;;;6.38;46.83
26436;BME280;15351;52.408;16.826;2023-04-04T10:37:34;101961.80;;;6.36;46.85
26436;BME280;15351;52.408;16.826;2023-04-04T10:40:54;101956.79;;;6.36;47.29
26436;BME280;15351;52.408;16.826;2023-04-04T10:44:03;101950.69;;;6.41;47.44
26436;BME280;15351;52.408;16.826;2023-04-04T10:47:34;101948.10;;;6.49;47.44
26436;BME280;15351;52.408;16.826;2023-04-04T10:49:59;101947.04;;;6.60;47.48
26436;BME280;15351;52.408;16.826;2023-04-04T10:53:00;101949.01;;;6.69;46.92
26436;BME280;15351;52.408;16.826;2023-04-04T10:55:29;101945.70;;;6.73;46.40
26436;BME280;15351;52.408;16.826;2023-04-04T10:57:57;101938.04;;;6.75;45.93
26436;BME280;15351;52.408;16.826;2023-04-04T11:00:25;101938.09;;;6.79;45.96
26436;BME280;15351;52.408;16.826;2023-04-04T11:05:39;101928.09;;;7.10;46.49
26436;BME280;15351;52.408;16.826;2023-04-04T11:08:34;101929.45;;;7.33;46.51
26436;BME280;15351;52.408;16.826;2023-04-04T11:11:27;101920.60;;;7.47;46.00
26436;BME280;15351;52.408;16.826;2023-04-04T11:14:20;101925.54;;;7.48;45.39
26436;BME280;15351;52.408;16.826;2023-04-04T11:16:58;101920.95;;;7.45;45.28
26436;BME280;15351;52.408;16.826;2023-04-04T11:19:36;101918.41;;;7.42;45.06
26436;BME280;15351;52.408;16.826;2023-04-04T11:22:09;101922.68;;;7.37;45.20
26436;BME280;15351;52.408;16.826;2023-04-04T11:24:42;101921.40;;;7.35;44.85
26436;BME280;15351;52.408;16.826;2023-04-04T11:27:11;101917.33;;;7.30;44.41
26436;BME280;15351;52.408;16.826;2023-04-04T11:30:10;101914.91;;;7.25;44.42
26436;BME280;15351;52.408;16.826;2023-04-04T11:35:21;101903.63;;;7.27;45.16
26436;BME280;15351;52.408;16.826;2023-04-04T11:40:41;101890.77;;;7.72;45.74
26436;BME280;15351;52.408;16.826;2023-04-04T11:46:07;101884.83;;;7.88;44.92
26436;BME280;15351;52.408;16.826;2023-04-04T11:48:38;101879.96;;;8.14;45.83
26436;BME280;15351;52.408;16.826;2023-04-04T11:51:18;101876.83;;;8.46;46.38
26436;BME280;15351;52.408;16.826;2023-04-04T11:54:16;101872.32;;;8.73;45.85
26436;BME280;15351;52.408;16.826;2023-04-04T11:56:44;101861.35;;;8.94;45.28
26436;BME280;15351;52.408;16.826;2023-04-04T11:59:25;101859.40;;;9.14;45.57
26436;BME280;15351;52.408;16.826;2023-04-04T12:01:53;101854.23;;;9.24;44.58
26436;BME280;15351;52.408;16.826;2023-04-04T12:04:20;101850.64;;;9.31;44.19
26436;BME280;15351;52.408;16.826;2023-04-04T12:06:53;101850.36;;;9.32;43.95
26436;BME280;15351;52.408;16.826;2023-04-04T12:09:22;101849.09;;;9.28;43.36
26436;BME280;15351;52.408;16.826;2023-04-04T12:11:51;101852.59;;;9.16;42.69
26436;BME280;15351;52.408;16.826;2023-04-04T12:14:22;101850.64;;;9.05;42.34
26436;BME280;15351;52.408;16.826;2023-04-04T12:16:58;101850.38;;;8.97;41.84
26436;BME280;15351;52.408;16.826;2023-04-04T12:19:29;101851.98;;;8.88;42.15
26436;BME280;15351;52.408;16.826;2023-04-04T12:22:12;101851.60;;;8.81;42.60
26436;BME280;15351;52.408;16.826;2023-04-04T12:25:00;101848.44;;;8.74;42.89
26436;BME280;15351;52.408;16.826;2023-04-04T12:27:36;101846.81;;;8.72;42.70
26436;BME280;15351;52.408;16.826;2023-04-04T12:30:48;101846.73;;;8.67;42.69
26436;BME280;15351;52.408;16.826;2023-04-04T12:33:26;101840.81;;;8.59;42.13
26436;BME280;15351;52.408;16.826;2023-04-04T12:35:56;101841.70;;;8.53;42.49
26436;BME280;15351;52.408;16.826;2023-04-04T12:38:59;101831.98;;;8.53;42.60
26436;BME280;15351;52.408;16.826;2023-04-04T12:41:56;101823.48;;;8.56;42.84
26436;BME280;15351;52.408;16.826;2023-04-04T12:52:59;101814.30;;;8.86;41.91
26436;BME280;15351;52.408;16.826;2023-04-04T12:56:08;101803.48;;;8.99;42.44
26436;BME280;15351;52.408;16.826;2023-04-04T12:58:40;101801.45;;;9.00;41.81
26436;BME280;15351;52.408;16.826;2023-04-04T13:01:50;101797.02;;;8.97;41.86
26436;BME280;15351;52.408;16.826;2023-04-04T13:04:24;101796.61;;;8.92;41.55
26436;BME280;15351;52.408;16.826;2023-04-04T13:11:07;101790.38;;;8.79;41.43
26436;BME280;15351;52.408;16.826;2023-04-04T13:14:54;101784.80;;;8.81;41.80
26436;BME280;15351;52.408;16.826;2023-04-04T13:17:54;101776.73;;;9.03;41.67
26436;BME280;15351;52.408;16.826;2023-04-04T13:20:55;101765.25;;;9.21;41.48
26436;BME280;15351;52.408;16.826;2023-04-04T13:24:10;101756.87;;;9.24;40.25
26436;BME280;15351;52.408;16.826;2023-04-04T13:30:56;101760.20;;;9.15;39.50
26436;BME280;15351;52.408;16.826;2023-04-04T13:34:08;101754.14;;;9.09;39.62
26436;BME280;15351;52.408;16.826;2023-04-04T13:41:01;101742.75;;;9.12;39.95
26436;BME280;15351;52.408;16.826;2023-04-04T13:44:40;101740.42;;;9.31;40.01
26436;BME280;15351;52.408;16.826;2023-04-04T13:54:26;101735.64;;;9.29;39.43
26436;BME280;15351;52.408;16.826;2023-04-04T13:57:02;101743.56;;;9.21;39.14
26436;BME280;15351;52.408;16.826;2023-04-04T13:59:28;101741.98;;;9.12;39.20
26436;BME280;15351;52.408;16.826;2023-04-04T14:01:58;101743.05;;;9.03;39.49
26436;BME280;15351;52.408;16.826;2023-04-04T14:04:25;101740.28;;;8.98;39.40
26436;BME280;15351;52.408;16.826;2023-04-04T14:07:02;101744.46;;;8.93;39.66
26436;BME280;15351;52.408;16.826;2023-04-04T14:09:42;101736.78;;;8.95;39.65
26436;BME280;15351;52.408;16.826;2023-04-04T14:12:32;101722.83;;;8.96;39.41
26436;BME280;15351;52.408;16.826;2023-04-04T14:14:59;101724.54;;;8.99;39.38
26436;BME280;15351;52.408;16.826;2023-04-04T14:17:45;101722.31;;;9.05;39.29
26436;BME280;15351;52.408;16.826;2023-04-04T14:20:18;101715.15;;;9.07;39.43
26436;BME280;15351;52.408;16.826;2023-04-04T14:22:59;101713.11;;;9.08;39.20
26436;BME280;15351;52.408;16.826;2023-04-04T14:25:30;101710.94;;;9.10;39.28
26436;BME280;15351;52.408;16.826;2023-04-04T14:28:02;101703.91;;;9.11;39.36
26436;BME280;15351;52.408;16.826;2023-04-04T14:31:03;101707.55;;;9.10;39.37
26436;BME280;15351;52.408;16.826;2023-04-04T14:33:38;101707.94;;;9.10;39.27
26436;BME280;15351;52.408;16.826;2023-04-04T14:36:07;101700.62;;;9.07;38.97
26436;BME280;15351;52.408;16.826;2023-04-04T14:38:39;101705.77;;;9.12;38.74
26436;BME280;15351;52.408;16.826;2023-04-04T14:41:06;101703.64;;;9.15;39.02
26436;BME280;15351;52.408;16.826;2023-04-04T14:43:45;101701.66;;;9.17;38.91
26436;BME280;15351;52.408;16.826;2023-04-04T14:46:14;101698.52;;;9.16;38.72
26436;BME280;15351;52.408;16.826;2023-04-04T14:48:59;101696.48;;;9.14;38.60
26436;BME280;15351;52.408;16.826;2023-04-04T14:51:32;101692.87;;;9.12;38.70
26436;BME280;15351;52.408;16.826;2023-04-04T14:54:03;101692.22;;;9.11;38.97
26436;BME280;15351;52.408;16.826;2023-04-04T14:57:32;101696.42;;;9.08;38.73
26436;BME280;15351;52.408;16.826;2023-04-04T14:59:59;101693.84;;;9.07;38.61
26436;BME280;15351;52.408;16.826;2023-04-04T15:02:29;101693.80;;;9.03;38.70
26436;BME280;15351;52.408;16.826;2023-04-04T15:04:55;101692.69;;;8.97;38.56
26436;BME280;15351;52.408;16.826;2023-04-04T15:07:28;101695.05;;;8.88;38.56
26436;BME280;15351;52.408;16.826;2023-04-04T15:10:16;101689.41;;;8.83;38.33
26436;BME280;15351;52.408;16.826;2023-04-04T15:12:53;101687.65;;;8.79;38.22
26436;BME280;15351;52.408;16.826;2023-04-04T15:15:23;101686.98;;;8.80;38.03
26436;BME280;15351;52.408;16.826;2023-04-04T15:17:50;101686.15;;;8.81;38.16
26436;BME280;15351;52.408;16.826;2023-04-04T15:20:17;101677.10;;;8.84;38.04
26436;BME280;15351;52.408;16.826;2023-04-04T15:22:46;101674.13;;;8.85;38.26
26436;BME280;15351;52.408;16.826;2023-04-04T15:25:13;101670.16;;;8.85;38.34
26436;BME280;15351;52.408;16.826;2023-04-04T15:27:40;101669.48;;;8.85;37.97